createdAt,value
2023-02-07T00:00:51.993Z,68.00
2023-02-07T00:04:12.162Z,67.70
2023-02-07T00:07:15.324Z,70.20
2023-02-07T00:10:18.562Z,67.90
2023-02-07T00:13:21.760Z,64.90
2023-02-07T00:16:26.315Z,67.40
2023-02-07T00:19:29.550Z,56.00
2023-02-07T00:22:32.970Z,59.90
2023-02-07T00:25:36.445Z,57.30
2023-02-07T00:28:39.852Z,59.40
2023-02-07T00:31:43.058Z,61.80
2023-02-07T00:34:47.750Z,60.70
2023-02-07T00:37:51.173Z,59.80
2023-02-07T00:40:54.470Z,55.10
2023-02-07T00:43:57.888Z,53.50
2023-02-07T00:47:01.456Z,56.90
2023-02-07T00:50:04.957Z,53.60
2023-02-07T00:53:08.153Z,53.40
2023-02-07T00:56:12.114Z,56.30
2023-02-07T00:59:15.329Z,58.80
2023-02-07T01:02:18.501Z,52.30
2023-02-07T01:05:21.687Z,52.50
2023-02-07T01:08:24.836Z,50.80
2023-02-07T01:11:29.446Z,53.30
2023-02-07T01:14:32.856Z,56.40
2023-02-07T01:17:36.020Z,77.90
2023-02-07T01:20:39.253Z,74.80
2023-02-07T01:23:42.572Z,67.30
2023-02-07T01:26:45.821Z,64.70
2023-02-07T01:29:51.278Z,61.40
2023-02-07T01:32:54.498Z,62.00
2023-02-07T01:35:57.891Z,60.90
2023-02-07T01:39:01.347Z,63.50
2023-02-07T01:42:04.760Z,60.80
2023-02-07T01:45:34.455Z,61.50
2023-02-07T01:48:37.677Z,61.60
2023-02-07T01:51:45.910Z,66.70
2023-02-07T01:54:53.892Z,67.80
2023-02-07T01:57:57.736Z,65.60
2023-02-07T02:01:07.643Z,62.90
2023-02-07T02:04:11.530Z,63.90
2023-02-07T02:07:16.278Z,70.40
2023-02-07T02:10:24.453Z,69.30
2023-02-07T02:13:49.471Z,80.10
2023-02-07T02:17:10.099Z,80.80
2023-02-07T02:20:50.474Z,78.30
2023-02-07T02:24:31.616Z,80.90
2023-02-07T02:27:48.706Z,75.00
2023-02-07T02:31:07.021Z,69.80
2023-02-07T02:34:34.437Z,69.30
2023-02-07T02:38:00.557Z,66.40
2023-02-07T02:41:15.661Z,66.90
2023-02-07T02:44:32.221Z,71.50
2023-02-07T02:47:37.080Z,71.70
2023-02-07T02:50:46.998Z,72.90
2023-02-07T02:53:55.583Z,69.20
2023-02-07T03:00:30.211Z,59.40
2023-02-07T03:03:52.523Z,59.10
2023-02-07T03:07:22.056Z,56.90
2023-02-07T03:10:48.112Z,61.40
2023-02-07T03:13:53.975Z,55.90
2023-02-07T03:17:12.636Z,60.40
2023-02-07T03:20:40.804Z,58.90
2023-02-07T03:23:46.458Z,55.40
2023-02-07T03:26:54.954Z,52.80
2023-02-07T03:30:02.271Z,55.30
2023-02-07T03:33:11.786Z,55.80
2023-02-07T03:36:29.070Z,50.60
2023-02-07T03:39:33.353Z,51.00
2023-02-07T03:42:36.581Z,57.40
2023-02-07T03:45:40.535Z,56.00
2023-02-07T03:48:43.753Z,55.60
2023-02-07T03:51:48.231Z,54.20
2023-02-07T03:54:51.404Z,53.20
2023-02-07T03:57:55.058Z,55.90
2023-02-07T04:00:58.502Z,56.70
2023-02-07T04:04:02.038Z,54.70
2023-02-07T04:07:05.349Z,58.70
2023-02-07T04:10:10.296Z,57.20
2023-02-07T04:13:13.532Z,61.00
2023-02-07T04:16:17.853Z,64.40
2023-02-07T04:19:21.762Z,57.80
2023-02-07T04:22:25.035Z,54.60
2023-02-07T04:25:28.331Z,55.40
2023-02-07T04:28:31.922Z,53.30
2023-02-07T04:31:35.254Z,54.10
2023-02-07T04:34:38.508Z,52.20
2023-02-07T04:37:41.689Z,53.30
2023-02-07T04:40:44.915Z,49.60
2023-02-07T04:43:48.086Z,52.10
2023-02-07T04:46:51.659Z,50.10
2023-02-07T04:49:54.926Z,54.00
2023-02-07T04:52:58.177Z,55.20
2023-02-07T04:56:01.534Z,51.60
2023-02-07T04:59:04.688Z,54.60
2023-02-07T05:02:07.924Z,55.30
2023-02-07T05:05:11.119Z,55.10
2023-02-07T05:08:14.655Z,60.80
2023-02-07T05:11:18.599Z,56.70
2023-02-07T05:14:21.876Z,61.60
2023-02-07T05:17:25.174Z,64.70
2023-02-07T05:20:28.871Z,61.30
2023-02-07T05:23:32.106Z,64.20
2023-02-07T05:26:35.323Z,66.90
2023-02-07T05:29:38.567Z,71.20
2023-02-07T05:33:00.398Z,72.50
2023-02-07T05:36:05.113Z,65.70
2023-02-07T05:39:08.332Z,68.20
2023-02-07T05:42:11.520Z,70.30
2023-02-07T05:45:14.853Z,68.70
2023-02-07T05:48:18.146Z,68.10
2023-02-07T05:51:21.388Z,66.50
2023-02-07T05:54:24.588Z,70.20
2023-02-07T05:57:27.964Z,72.80
2023-02-07T06:00:31.338Z,77.40
2023-02-07T06:03:34.620Z,76.70
2023-02-07T06:06:37.851Z,77.70
2023-02-07T06:09:41.171Z,76.10
2023-02-07T06:12:44.374Z,73.80
2023-02-07T06:15:48.214Z,74.40
2023-02-07T06:18:51.465Z,78.10
2023-02-07T06:21:54.694Z,78.20
2023-02-07T06:24:57.948Z,73.10
2023-02-07T06:28:01.313Z,80.00
2023-02-07T06:31:05.233Z,81.40
2023-02-07T06:34:08.582Z,81.40
2023-02-07T06:37:12.427Z,83.80
2023-02-07T06:40:15.721Z,103.50
2023-02-07T06:43:19.050Z,106.30
2023-02-07T06:46:22.332Z,112.90
2023-02-07T06:49:25.568Z,108.40
2023-02-07T06:52:28.898Z,109.00
2023-02-07T06:55:36.472Z,113.40
2023-02-07T06:58:39.974Z,96.70
2023-02-07T07:01:43.411Z,101.80
2023-02-07T07:04:46.911Z,103.30
2023-02-07T07:07:51.654Z,101.60
2023-02-07T07:10:56.848Z,97.20
2023-02-07T07:14:00.701Z,93.80
2023-02-07T07:17:04.100Z,97.50
2023-02-07T07:20:08.219Z,96.20
2023-02-07T07:23:11.665Z,96.70
2023-02-07T07:26:15.126Z,97.80
2023-02-07T07:29:19.642Z,94.20
2023-02-07T07:32:33.691Z,94.60
2023-02-07T07:35:38.356Z,128.30
2023-02-07T07:38:44.641Z,130.80
2023-02-07T07:41:50.879Z,105.60
2023-02-07T07:45:04.823Z,92.20
2023-02-07T07:48:08.165Z,88.40
2023-02-07T07:51:11.473Z,90.70
2023-02-07T07:54:14.756Z,87.30
2023-02-07T07:57:20.347Z,87.60
2023-02-07T08:00:24.397Z,89.20
2023-02-07T08:03:27.949Z,92.70
2023-02-07T08:06:32.206Z,99.30
2023-02-07T08:09:35.518Z,89.80
2023-02-07T08:12:38.843Z,70.30
2023-02-07T08:16:05.351Z,59.50
2023-02-07T08:19:08.746Z,67.10
2023-02-07T08:22:14.419Z,76.20
2023-02-07T08:25:17.884Z,71.80
2023-02-07T08:28:21.866Z,65.20
2023-02-07T08:31:25.295Z,59.60
2023-02-07T08:34:29.101Z,55.40
2023-02-07T08:37:32.963Z,60.00
2023-02-07T08:40:37.226Z,59.30
2023-02-07T08:43:41.944Z,58.00
2023-02-07T08:46:45.861Z,57.00
2023-02-07T08:49:49.267Z,57.30
2023-02-07T08:52:52.630Z,57.10
2023-02-07T08:55:55.914Z,59.60
2023-02-07T08:58:59.271Z,61.00
2023-02-07T09:02:03.212Z,61.30
2023-02-07T09:05:06.966Z,59.10
2023-02-07T09:08:10.496Z,65.30
2023-02-07T09:11:13.861Z,62.00
2023-02-07T09:14:17.170Z,62.40
2023-02-07T09:17:20.584Z,60.70
2023-02-07T09:20:24.346Z,59.80
2023-02-07T09:23:27.746Z,59.90
2023-02-07T09:26:33.346Z,60.00
2023-02-07T09:29:36.736Z,55.90
2023-02-07T09:32:40.041Z,52.20
2023-02-07T09:35:46.537Z,52.10
2023-02-07T09:38:50.221Z,54.80
2023-02-07T09:42:05.729Z,48.90
2023-02-07T09:45:14.242Z,51.70
2023-02-07T09:48:22.965Z,48.30
2023-02-07T09:51:27.656Z,47.60
2023-02-07T09:54:39.676Z,50.90
2023-02-07T09:57:49.117Z,49.10
2023-02-07T10:01:06.777Z,46.30
2023-02-07T10:04:21.032Z,43.80
2023-02-07T10:07:24.505Z,44.90
2023-02-07T10:10:43.012Z,45.80
2023-02-07T10:14:24.388Z,44.20
2023-02-07T10:17:50.787Z,44.70
2023-02-07T10:21:20.604Z,43.70
2023-02-07T10:24:23.944Z,38.60
2023-02-07T10:27:35.734Z,42.90
2023-02-07T10:30:41.943Z,43.10
2023-02-07T10:34:18.898Z,41.50
2023-02-07T10:37:25.059Z,40.70
2023-02-07T10:40:36.691Z,41.30
2023-02-07T10:43:43.847Z,40.00
2023-02-07T10:46:55.001Z,42.00
2023-02-07T10:50:00.848Z,38.10
2023-02-07T10:53:04.354Z,39.90
2023-02-07T10:56:16.618Z,42.50
2023-02-07T11:02:54.771Z,34.20
2023-02-07T11:05:59.718Z,36.70
2023-02-07T11:09:24.728Z,33.00
2023-02-07T11:12:28.092Z,34.50
2023-02-07T11:15:37.543Z,31.70
2023-02-07T11:18:46.855Z,30.20
2023-02-07T11:21:53.127Z,28.60
2023-02-07T11:25:06.248Z,29.30
2023-02-07T11:28:31.182Z,27.00
2023-02-07T11:31:37.275Z,28.90
2023-02-07T11:34:47.049Z,27.90
2023-02-07T11:38:06.050Z,27.00
2023-02-07T11:41:17.861Z,28.30
2023-02-07T11:44:24.978Z,27.50
2023-02-07T11:47:31.139Z,29.60
2023-02-07T11:50:41.111Z,28.10
2023-02-07T11:53:56.427Z,32.50
2023-02-07T11:57:05.460Z,29.50
2023-02-07T12:00:16.826Z,31.60
2023-02-07T12:03:30.332Z,31.90
2023-02-07T12:06:43.725Z,30.50
2023-02-07T12:09:52.009Z,30.20
2023-02-07T12:13:03.348Z,28.80
2023-02-07T12:16:32.985Z,27.40
2023-02-07T12:19:46.321Z,29.50
2023-02-07T12:23:27.955Z,29.50
2023-02-07T12:26:37.940Z,26.60
2023-02-07T12:30:04.393Z,28.10
2023-02-07T12:33:18.277Z,26.10
2023-02-07T12:36:29.917Z,24.10
2023-02-07T12:40:12.120Z,19.60
2023-02-07T12:43:24.196Z,25.00
2023-02-07T12:47:11.693Z,23.60
2023-02-07T12:50:34.261Z,24.30
2023-02-07T12:54:16.007Z,27.10
2023-02-07T12:57:37.814Z,26.20
2023-02-07T13:04:16.243Z,21.80
2023-02-07T13:07:42.092Z,26.60
2023-02-07T13:11:01.605Z,25.50
2023-02-07T13:14:19.600Z,23.40
2023-02-07T13:17:45.831Z,22.30
2023-02-07T13:21:01.665Z,24.30
2023-02-07T13:24:08.502Z,23.20
2023-02-07T13:27:18.111Z,25.10
2023-02-07T13:30:22.376Z,22.20
2023-02-07T13:33:44.939Z,18.50
2023-02-07T13:36:49.737Z,17.30
2023-02-07T13:40:06.165Z,18.10
2023-02-07T13:43:19.899Z,19.60
2023-02-07T13:46:44.555Z,17.40
2023-02-07T13:50:17.316Z,20.00
2023-02-07T13:53:46.533Z,17.80
2023-02-07T13:57:16.316Z,23.30
2023-02-07T14:00:23.779Z,29.50
2023-02-07T14:03:31.531Z,22.60
2023-02-07T14:06:44.335Z,17.40
2023-02-07T14:09:49.676Z,27.20
2023-02-07T14:12:53.923Z,28.40
2023-02-07T14:16:02.994Z,24.30
2023-02-07T14:19:12.676Z,23.00
2023-02-07T14:22:17.807Z,22.90
2023-02-07T14:25:36.379Z,19.30
2023-02-07T14:28:39.977Z,16.00
2023-02-07T14:32:00.964Z,15.00
2023-02-07T14:35:10.535Z,16.70
2023-02-07T14:38:27.690Z,16.80
2023-02-07T14:41:34.710Z,17.30
2023-02-07T14:44:41.828Z,21.20
2023-02-07T14:47:45.257Z,19.60
2023-02-07T14:50:53.156Z,22.90
2023-02-07T14:54:27.647Z,18.70
2023-02-07T14:57:37.882Z,17.50
2023-02-07T15:00:49.385Z,18.80
2023-02-07T15:04:05.068Z,19.60
2023-02-07T15:07:12.688Z,18.30
2023-02-07T15:10:16.306Z,16.40
2023-02-07T15:13:33.033Z,17.80
2023-02-07T15:16:38.595Z,23.80
2023-02-07T15:19:42.441Z,25.70
2023-02-07T15:22:52.729Z,22.70
2023-02-07T15:25:56.946Z,23.90
2023-02-07T15:29:06.660Z,24.60
2023-02-07T15:32:24.920Z,21.50
2023-02-07T15:35:36.606Z,18.60
2023-02-07T15:38:40.633Z,21.50
2023-02-07T15:41:49.681Z,27.90
2023-02-07T15:44:55.632Z,26.40
2023-02-07T15:48:14.836Z,28.40
2023-02-07T15:51:25.178Z,31.70
2023-02-07T15:54:28.948Z,34.00
2023-02-07T15:57:41.644Z,57.90
2023-02-07T16:00:45.129Z,59.40
2023-02-07T16:03:48.984Z,43.40
2023-02-07T16:07:07.764Z,40.70
2023-02-07T16:10:33.187Z,41.40
2023-02-07T16:13:45.090Z,43.40
2023-02-07T16:16:48.349Z,41.70
2023-02-07T16:19:52.048Z,39.20
2023-02-07T16:23:02.060Z,36.50
2023-02-07T16:26:05.734Z,36.30
2023-02-07T16:29:15.827Z,37.50
2023-02-07T16:32:20.455Z,37.60
2023-02-07T16:35:27.867Z,36.80
2023-02-07T16:38:31.893Z,34.00
2023-02-07T16:41:39.365Z,31.60
2023-02-07T16:44:45.464Z,34.80
2023-02-07T16:47:49.158Z,31.80
2023-02-07T16:50:52.590Z,29.70
2023-02-07T16:54:02.212Z,30.80
2023-02-07T16:57:05.936Z,31.20
2023-02-07T17:00:15.594Z,28.70
2023-02-07T17:03:19.408Z,29.90
2023-02-07T17:06:24.261Z,27.10
2023-02-07T17:09:28.709Z,28.30
2023-02-07T17:12:32.188Z,26.90
2023-02-07T17:15:36.096Z,28.20
2023-02-07T17:18:40.631Z,29.90
2023-02-07T17:21:45.459Z,29.30
2023-02-07T17:24:49.028Z,30.20
2023-02-07T17:27:52.467Z,33.60
2023-02-07T17:30:56.789Z,35.00
2023-02-07T17:34:00.366Z,45.10
2023-02-07T17:37:03.770Z,40.50
2023-02-07T17:40:29.859Z,38.90
2023-02-07T17:43:33.621Z,42.20
2023-02-07T17:46:37.150Z,47.00
2023-02-07T17:49:40.394Z,52.50
2023-02-07T17:52:43.930Z,54.50
2023-02-07T17:55:47.662Z,61.60
2023-02-07T17:58:52.239Z,67.80
2023-02-07T18:01:55.618Z,79.00
2023-02-07T18:04:58.983Z,86.00
2023-02-07T18:08:02.752Z,102.30
2023-02-07T18:11:07.377Z,107.20
2023-02-07T18:14:10.586Z,108.80
2023-02-07T18:17:13.861Z,106.90
2023-02-07T18:20:28.117Z,111.20
2023-02-07T18:23:31.715Z,108.00
2023-02-07T18:26:34.991Z,99.90
2023-02-07T18:29:38.196Z,93.20
2023-02-07T18:32:42.472Z,91.50
2023-02-07T18:35:46.925Z,87.40
2023-02-07T18:38:50.792Z,76.90
2023-02-07T18:41:55.270Z,81.80
2023-02-07T18:44:58.711Z,105.10
2023-02-07T18:48:02.207Z,67.20
2023-02-07T18:51:10.693Z,46.10
2023-02-07T18:54:14.415Z,51.40
2023-02-07T18:57:18.956Z,58.40
2023-02-07T19:00:22.157Z,52.30
2023-02-07T19:03:25.392Z,49.20
2023-02-07T19:06:32.017Z,46.90
2023-02-07T19:09:35.496Z,39.60
2023-02-07T19:12:39.745Z,40.30
2023-02-07T19:15:43.048Z,49.00
2023-02-07T19:18:47.559Z,50.40
2023-02-07T19:21:51.701Z,50.70
2023-02-07T19:24:55.592Z,41.90
2023-02-07T19:27:58.998Z,39.40
2023-02-07T19:31:03.786Z,38.60
2023-02-07T19:34:07.558Z,39.10
2023-02-07T19:37:10.850Z,37.80
2023-02-07T19:40:14.338Z,49.10
2023-02-07T19:43:17.709Z,55.80
2023-02-07T19:46:21.781Z,52.80
2023-02-07T19:49:26.503Z,46.00
2023-02-07T19:52:29.935Z,51.70
2023-02-07T19:55:33.301Z,75.70
2023-02-07T19:58:41.640Z,67.00
2023-02-07T20:01:44.982Z,63.30
2023-02-07T20:04:48.394Z,57.10
2023-02-07T20:07:51.730Z,51.90
2023-02-07T20:10:54.984Z,54.80
2023-02-07T20:14:03.762Z,60.70
2023-02-07T20:17:07.380Z,53.00
2023-02-07T20:20:10.841Z,56.80
2023-02-07T20:23:14.044Z,56.80
2023-02-07T20:26:23.520Z,59.10
2023-02-07T20:29:27.368Z,51.70
2023-02-07T20:32:30.608Z,59.60
2023-02-07T20:35:37.354Z,58.60
2023-02-07T20:38:40.644Z,61.00
2023-02-07T20:41:46.240Z,60.50
2023-02-07T20:44:49.893Z,59.50
2023-02-07T20:47:53.170Z,55.80
2023-02-07T20:50:57.728Z,72.80
2023-02-07T20:54:03.275Z,69.00
2023-02-07T20:57:07.305Z,56.90
2023-02-07T21:00:11.229Z,51.70
2023-02-07T21:03:14.594Z,83.20
2023-02-07T21:06:18.053Z,73.10
2023-02-07T21:09:22.143Z,65.40
2023-02-07T21:12:25.803Z,62.00
2023-02-07T21:15:32.416Z,67.10
2023-02-07T21:18:37.752Z,81.40
2023-02-07T21:21:41.664Z,87.10
2023-02-07T21:24:44.935Z,75.40
2023-02-07T21:27:48.385Z,72.30
2023-02-07T21:30:51.697Z,65.60
2023-02-07T21:33:55.045Z,60.00
2023-02-07T21:36:58.384Z,49.40
2023-02-07T21:40:01.676Z,51.60
2023-02-07T21:43:05.300Z,58.60
2023-02-07T21:46:18.119Z,53.40
2023-02-07T21:49:22.017Z,46.90
2023-02-07T21:52:25.394Z,42.00
2023-02-07T21:55:28.705Z,42.30
2023-02-07T21:58:33.524Z,41.60
2023-02-07T22:01:37.500Z,43.20
2023-02-07T22:04:42.734Z,52.80
2023-02-07T22:07:46.396Z,53.50
2023-02-07T22:10:49.842Z,46.20
2023-02-07T22:13:53.787Z,48.30
2023-02-07T22:16:58.086Z,51.70
2023-02-07T22:20:01.763Z,50.50
2023-02-07T22:23:05.672Z,51.30
2023-02-07T22:26:12.112Z,52.90
2023-02-07T22:29:15.409Z,51.40
2023-02-07T22:32:20.168Z,51.30
2023-02-07T22:35:23.674Z,50.80
2023-02-07T22:38:27.972Z,47.20
2023-02-07T22:41:32.190Z,47.90
2023-02-07T22:44:35.588Z,46.40
2023-02-07T22:47:39.228Z,48.00
2023-02-07T22:50:43.397Z,40.10
2023-02-07T22:53:47.558Z,40.90
2023-02-07T22:56:50.807Z,36.10
2023-02-07T22:59:54.693Z,36.90
2023-02-07T23:02:58.057Z,41.30
2023-02-07T23:06:05.728Z,43.20
2023-02-07T23:09:09.453Z,38.10
2023-02-07T23:12:12.817Z,41.70
2023-02-07T23:15:16.113Z,39.80
2023-02-07T23:18:19.897Z,46.70
2023-02-07T23:21:24.709Z,54.10
2023-02-07T23:24:28.134Z,54.50
2023-02-07T23:27:31.519Z,53.10
2023-02-07T23:30:36.318Z,47.60
2023-02-07T23:33:39.891Z,50.90
2023-02-07T23:36:43.644Z,49.60
2023-02-07T23:39:47.171Z,49.30
2023-02-07T23:42:50.573Z,46.00
2023-02-07T23:45:54.172Z,49.10
2023-02-07T23:48:57.553Z,50.20
2023-02-07T23:52:00.867Z,42.10
2023-02-07T23:55:04.776Z,41.60
2023-02-07T23:58:08.097Z,43.90
